sensor_id;sensor_type;location;lat;lon;timestamp;P1;durP1;ratioP1;P2;durP2;ratioP2
1887;SDS011;944;51.574;6.980;2022-07-22T02:44:13;15.23;;;6.60;;
1887;SDS011;944;51.574;6.980;2022-07-22T03:41:31;16.67;;;6.20;;
1887;SDS011;944;51.574;6.980;2022-07-22T03:44:57;19.93;;;6.80;;
1887;SDS011;944;51.574;6.980;2022-07-22T03:53:50;17.10;;;6.50;;
1887;SDS011;944;51.574;6.980;2022-07-22T04:48:44;14.47;;;6.27;;
1887;SDS011;944;51.574;6.980;2022-07-22T05:46:22;20.17;;;3.17;;
1887;SDS011;944;51.574;6.980;2022-07-22T05:48:49;10.73;;;3.10;;
1887;SDS011;944;51.574;6.980;2022-07-22T05:51:16;5.80;;;2.67;;
1887;SDS011;944;51.574;6.980;2022-07-22T05:53:44;6.60;;;3.00;;
1887;SDS011;944;51.574;6.980;2022-07-22T05:56:11;8.00;;;3.27;;
1887;SDS011;944;51.574;6.980;2022-07-22T05:58:38;13.40;;;3.17;;
1887;SDS011;944;51.574;6.980;2022-07-22T06:01:06;9.20;;;3.10;;
1887;SDS011;944;51.574;6.980;2022-07-22T06:03:36;9.00;;;2.53;;
1887;SDS011;944;51.574;6.980;2022-07-22T06:06:03;8.33;;;2.67;;
1887;SDS011;944;51.574;6.980;2022-07-22T06:11:12;7.90;;;2.97;;
1887;SDS011;944;51.574;6.980;2022-07-22T06:13:41;4.37;;;2.60;;
1887;SDS011;944;51.574;6.980;2022-07-22T06:16:23;10.20;;;2.50;;
1887;SDS011;944;51.574;6.980;2022-07-22T06:18:51;9.23;;;2.60;;
1887;SDS011;944;51.574;6.980;2022-07-22T06:21:18;4.00;;;2.40;;
1887;SDS011;944;51.574;6.980;2022-07-22T06:23:45;5.90;;;3.03;;
1887;SDS011;944;51.574;6.980;2022-07-22T06:26:12;9.03;;;2.70;;
1887;SDS011;944;51.574;6.980;2022-07-22T06:28:39;10.20;;;2.77;;
1887;SDS011;944;51.574;6.980;2022-07-22T06:31:06;10.10;;;4.30;;
1887;SDS011;944;51.574;6.980;2022-07-22T06:33:38;7.80;;;2.43;;
1887;SDS011;944;51.574;6.980;2022-07-22T06:39:47;5.33;;;2.30;;
1887;SDS011;944;51.574;6.980;2022-07-22T06:45:44;4.67;;;2.57;;
1887;SDS011;944;51.574;6.980;2022-07-22T06:48:11;9.13;;;2.97;;
1887;SDS011;944;51.574;6.980;2022-07-22T06:50:38;5.03;;;1.93;;
1887;SDS011;944;51.574;6.980;2022-07-22T06:53:05;6.10;;;2.20;;
1887;SDS011;944;51.574;6.980;2022-07-22T06:55:33;3.33;;;2.20;;
1887;SDS011;944;51.574;6.980;2022-07-22T06:58:00;3.87;;;2.57;;
1887;SDS011;944;51.574;6.980;2022-07-22T07:00:29;7.90;;;2.80;;
1887;SDS011;944;51.574;6.980;2022-07-22T07:02:57;5.77;;;2.50;;
1887;SDS011;944;51.574;6.980;2022-07-22T07:05:25;7.57;;;2.10;;
1887;SDS011;944;51.574;6.980;2022-07-22T07:07:53;6.60;;;2.20;;
1887;SDS011;944;51.574;6.980;2022-07-22T07:10:20;10.13;;;2.87;;
1887;SDS011;944;51.574;6.980;2022-07-22T07:12:49;5.90;;;2.80;;
1887;SDS011;944;51.574;6.980;2022-07-22T07:15:21;8.30;;;3.43;;
1887;SDS011;944;51.574;6.980;2022-07-22T07:17:49;9.30;;;4.50;;
1887;SDS011;944;51.574;6.980;2022-07-22T07:20:16;14.80;;;2.97;;
1887;SDS011;944;51.574;6.980;2022-07-22T07:22:43;5.40;;;2.10;;
1887;SDS011;944;51.574;6.980;2022-07-22T07:25:10;7.43;;;2.77;;
1887;SDS011;944;51.574;6.980;2022-07-22T07:27:37;10.30;;;3.80;;
1887;SDS011;944;51.574;6.980;2022-07-22T07:30:07;6.20;;;2.70;;
1887;SDS011;944;51.574;6.980;2022-07-22T07:32:35;5.80;;;2.50;;
1887;SDS011;944;51.574;6.980;2022-07-22T07:35:05;5.23;;;2.40;;
1887;SDS011;944;51.574;6.980;2022-07-22T07:37:33;7.03;;;2.67;;
1887;SDS011;944;51.574;6.980;2022-07-22T07:40:00;6.50;;;2.63;;
1887;SDS011;944;51.574;6.980;2022-07-22T07:42:28;6.50;;;2.80;;
1887;SDS011;944;51.574;6.980;2022-07-22T07:44:55;7.53;;;3.03;;
1887;SDS011;944;51.574;6.980;2022-07-22T07:47:26;5.70;;;2.37;;
1887;SDS011;944;51.574;6.980;2022-07-22T07:49:53;3.87;;;2.40;;
1887;SDS011;944;51.574;6.980;2022-07-22T07:52:24;6.77;;;2.50;;
1887;SDS011;944;51.574;6.980;2022-07-22T07:54:54;8.07;;;3.20;;
1887;SDS011;944;51.574;6.980;2022-07-22T07:57:21;21.10;;;3.20;;
1887;SDS011;944;51.574;6.980;2022-07-22T07:59:48;6.53;;;2.63;;
1887;SDS011;944;51.574;6.980;2022-07-22T08:02:17;3.33;;;2.20;;
1887;SDS011;944;51.574;6.980;2022-07-22T08:04:46;10.80;;;2.70;;
1887;SDS011;944;51.574;6.980;2022-07-22T08:07:13;7.20;;;2.77;;
1887;SDS011;944;51.574;6.980;2022-07-22T08:09:42;5.17;;;2.80;;
1887;SDS011;944;51.574;6.980;2022-07-22T08:15:22;11.53;;;2.60;;
1887;SDS011;944;51.574;6.980;2022-07-22T08:17:52;7.23;;;2.70;;
1887;SDS011;944;51.574;6.980;2022-07-22T08:20:21;3.53;;;2.23;;
1887;SDS011;944;51.574;6.980;2022-07-22T08:22:54;7.93;;;2.30;;
1887;SDS011;944;51.574;6.980;2022-07-22T08:25:23;11.17;;;2.50;;
1887;SDS011;944;51.574;6.980;2022-07-22T08:27:51;5.97;;;2.40;;
1887;SDS011;944;51.574;6.980;2022-07-22T08:30:18;5.70;;;2.13;;
1887;SDS011;944;51.574;6.980;2022-07-22T08:32:48;5.30;;;2.17;;
1887;SDS011;944;51.574;6.980;2022-07-22T08:35:18;6.33;;;1.90;;
1887;SDS011;944;51.574;6.980;2022-07-22T08:37:50;5.63;;;2.00;;
1887;SDS011;944;51.574;6.980;2022-07-22T08:40:17;4.20;;;1.90;;
1887;SDS011;944;51.574;6.980;2022-07-22T08:42:46;9.40;;;4.33;;
1887;SDS011;944;51.574;6.980;2022-07-22T08:45:14;2.90;;;2.03;;
1887;SDS011;944;51.574;6.980;2022-07-22T08:47:43;3.20;;;2.10;;
1887;SDS011;944;51.574;6.980;2022-07-22T08:50:16;6.70;;;2.30;;
1887;SDS011;944;51.574;6.980;2022-07-22T08:56:29;3.43;;;2.23;;
1887;SDS011;944;51.574;6.980;2022-07-22T08:59:20;9.63;;;2.30;;
1887;SDS011;944;51.574;6.980;2022-07-22T09:02:11;6.07;;;2.90;;
1887;SDS011;944;51.574;6.980;2022-07-22T09:04:54;2.57;;;2.37;;
1887;SDS011;944;51.574;6.980;2022-07-22T09:20:48;5.93;;;2.27;;
1887;SDS011;944;51.574;6.980;2022-07-22T09:23:47;10.83;;;2.50;;
1887;SDS011;944;51.574;6.980;2022-07-22T09:30:00;8.03;;;2.80;;
1887;SDS011;944;51.574;6.980;2022-07-22T09:36:08;11.40;;;2.70;;
1887;SDS011;944;51.574;6.980;2022-07-22T09:39:16;7.53;;;3.47;;
1887;SDS011;944;51.574;6.980;2022-07-22T09:50:10;8.00;;;3.20;;
1887;SDS011;944;51.574;6.980;2022-07-22T09:53:49;16.90;;;3.20;;
1887;SDS011;944;51.574;6.980;2022-07-22T10:43:04;5.40;;;3.07;;
1887;SDS011;944;51.574;6.980;2022-07-22T10:49:16;3.87;;;2.97;;
1887;SDS011;944;51.574;6.980;2022-07-22T10:54:25;3.67;;;3.13;;
1887;SDS011;944;51.574;6.980;2022-07-22T10:56:59;7.67;;;4.03;;
1887;SDS011;944;51.574;6.980;2022-07-22T10:59:32;4.73;;;3.20;;
1887;SDS011;944;51.574;6.980;2022-07-22T11:02:10;6.43;;;4.20;;
1887;SDS011;944;51.574;6.980;2022-07-22T11:04:41;6.67;;;4.30;;
1887;SDS011;944;51.574;6.980;2022-07-22T11:07:10;8.03;;;4.73;;
1887;SDS011;944;51.574;6.980;2022-07-22T11:09:38;5.27;;;3.87;;
1887;SDS011;944;51.574;6.980;2022-07-22T11:12:07;5.33;;;3.73;;
1887;SDS011;944;51.574;6.980;2022-07-22T11:14:39;6.90;;;4.30;;
1887;SDS011;944;51.574;6.980;2022-07-22T11:17:07;11.03;;;4.87;;
1887;SDS011;944;51.574;6.980;2022-07-22T11:19:39;8.73;;;5.30;;
1887;SDS011;944;51.574;6.980;2022-07-22T11:28:40;10.70;;;5.90;;
1887;SDS011;944;51.574;6.980;2022-07-22T11:31:18;7.90;;;5.37;;
1887;SDS011;944;51.574;6.980;2022-07-22T11:38:05;12.00;;;7.30;;
1887;SDS011;944;51.574;6.980;2022-07-22T11:41:00;11.53;;;8.87;;
1887;SDS011;944;51.574;6.980;2022-07-22T11:51:01;17.07;;;12.50;;
1887;SDS011;944;51.574;6.980;2022-07-22T11:53:40;22.50;;;15.70;;
1887;SDS011;944;51.574;6.980;2022-07-22T11:56:15;22.07;;;19.30;;
1887;SDS011;944;51.574;6.980;2022-07-22T11:59:12;26.23;;;20.20;;
1887;SDS011;944;51.574;6.980;2022-07-22T12:01:50;15.80;;;12.83;;
1887;SDS011;944;51.574;6.980;2022-07-22T13:01:18;12.73;;;9.97;;
1887;SDS011;944;51.574;6.980;2022-07-22T13:03:47;18.37;;;8.97;;
1887;SDS011;944;51.574;6.980;2022-07-22T13:12:35;11.27;;;8.90;;
1887;SDS011;944;51.574;6.980;2022-07-22T13:28:05;12.03;;;9.50;;
1887;SDS011;944;51.574;6.980;2022-07-22T13:44:48;9.07;;;5.67;;
1887;SDS011;944;51.574;6.980;2022-07-22T13:47:32;11.00;;;6.97;;
1887;SDS011;944;51.574;6.980;2022-07-22T13:49:59;7.60;;;6.33;;
1887;SDS011;944;51.574;6.980;2022-07-22T13:52:27;10.77;;;6.07;;
1887;SDS011;944;51.574;6.980;2022-07-22T13:54:54;8.00;;;6.43;;
1887;SDS011;944;51.574;6.980;2022-07-22T13:57:21;7.60;;;5.43;;
1887;SDS011;944;51.574;6.980;2022-07-22T13:59:50;12.03;;;6.27;;
1887;SDS011;944;51.574;6.980;2022-07-22T14:02:18;7.13;;;5.50;;
1887;SDS011;944;51.574;6.980;2022-07-22T14:04:45;8.93;;;6.20;;
1887;SDS011;944;51.574;6.980;2022-07-22T14:07:12;10.33;;;5.47;;
1887;SDS011;944;51.574;6.980;2022-07-22T14:09:39;8.13;;;5.40;;
1887;SDS011;944;51.574;6.980;2022-07-22T14:12:06;8.17;;;6.10;;
1887;SDS011;944;51.574;6.980;2022-07-22T14:14:36;16.13;;;7.47;;
1887;SDS011;944;51.574;6.980;2022-07-22T14:17:43;8.80;;;6.80;;
1887;SDS011;944;51.574;6.980;2022-07-22T14:24:06;15.80;;;7.03;;
1887;SDS011;944;51.574;6.980;2022-07-22T14:26:34;14.00;;;7.07;;
1887;SDS011;944;51.574;6.980;2022-07-22T14:29:03;14.60;;;7.07;;
1887;SDS011;944;51.574;6.980;2022-07-22T14:31:34;16.60;;;7.07;;
1887;SDS011;944;51.574;6.980;2022-07-22T14:41:03;9.77;;;7.57;;
1887;SDS011;944;51.574;6.980;2022-07-22T14:43:52;9.47;;;7.00;;
1887;SDS011;944;51.574;6.980;2022-07-22T14:50:32;12.30;;;4.70;;
1887;SDS011;944;51.574;6.980;2022-07-22T14:53:01;6.80;;;5.10;;
1887;SDS011;944;51.574;6.980;2022-07-22T14:59:16;7.80;;;4.63;;
1887;SDS011;944;51.574;6.980;2022-07-22T15:01:52;7.03;;;4.10;;
1887;SDS011;944;51.574;6.980;2022-07-22T15:04:27;6.33;;;4.23;;
1887;SDS011;944;51.574;6.980;2022-07-22T15:07:14;6.03;;;4.33;;
1887;SDS011;944;51.574;6.980;2022-07-22T15:09:58;7.87;;;5.60;;
1887;SDS011;944;51.574;6.980;2022-07-22T15:12:28;12.13;;;4.70;;
1887;SDS011;944;51.574;6.980;2022-07-22T15:28:08;15.20;;;3.90;;
1887;SDS011;944;51.574;6.980;2022-07-22T15:30:41;4.90;;;3.00;;
1887;SDS011;944;51.574;6.980;2022-07-22T15:33:36;5.23;;;3.83;;
1887;SDS011;944;51.574;6.980;2022-07-22T15:36:29;8.47;;;3.20;;
1887;SDS011;944;51.574;6.980;2022-07-22T15:38:55;5.90;;;3.30;;
1887;SDS011;944;51.574;6.980;2022-07-22T15:41:33;6.13;;;2.87;;
1887;SDS011;944;51.574;6.980;2022-07-22T15:44:08;5.87;;;3.00;;
1887;SDS011;944;51.574;6.980;2022-07-22T15:46:36;5.57;;;3.20;;
1887;SDS011;944;51.574;6.980;2022-07-22T15:49:03;6.80;;;3.13;;
1887;SDS011;944;51.574;6.980;2022-07-22T15:51:30;7.30;;;3.20;;
1887;SDS011;944;51.574;6.980;2022-07-22T15:53:58;5.40;;;2.87;;
1887;SDS011;944;51.574;6.980;2022-07-22T15:56:25;8.93;;;3.30;;
1887;SDS011;944;51.574;6.980;2022-07-22T15:58:53;5.13;;;2.93;;
1887;SDS011;944;51.574;6.980;2022-07-22T16:01:38;4.90;;;3.10;;
1887;SDS011;944;51.574;6.980;2022-07-22T16:04:05;5.00;;;3.30;;
1887;SDS011;944;51.574;6.980;2022-07-22T16:06:32;5.73;;;2.97;;
1887;SDS011;944;51.574;6.980;2022-07-22T16:08:59;8.40;;;3.73;;
1887;SDS011;944;51.574;6.980;2022-07-22T16:11:26;5.70;;;3.20;;
1887;SDS011;944;51.574;6.980;2022-07-22T16:13:53;5.47;;;3.43;;
1887;SDS011;944;51.574;6.980;2022-07-22T16:16:22;7.93;;;3.10;;
1887;SDS011;944;51.574;6.980;2022-07-22T16:18:50;7.97;;;2.80;;
1887;SDS011;944;51.574;6.980;2022-07-22T16:21:28;3.10;;;2.80;;
1887;SDS011;944;51.574;6.980;2022-07-22T16:24:30;3.60;;;2.53;;
1887;SDS011;944;51.574;6.980;2022-07-22T16:27:11;11.10;;;2.40;;
1887;SDS011;944;51.574;6.980;2022-07-22T16:29:56;4.30;;;2.73;;
1887;SDS011;944;51.574;6.980;2022-07-22T16:35:27;3.77;;;2.60;;
1887;SDS011;944;51.574;6.980;2022-07-22T16:37:56;6.77;;;2.73;;
1887;SDS011;944;51.574;6.980;2022-07-22T16:40:28;10.10;;;3.30;;
1887;SDS011;944;51.574;6.980;2022-07-22T16:42:55;10.63;;;3.27;;
1887;SDS011;944;51.574;6.980;2022-07-22T16:45:25;9.80;;;2.83;;
1887;SDS011;944;51.574;6.980;2022-07-22T16:47:55;7.13;;;3.33;;
1887;SDS011;944;51.574;6.980;2022-07-22T16:50:25;8.60;;;3.40;;
1887;SDS011;944;51.574;6.980;2022-07-22T16:52:57;5.07;;;2.90;;
1887;SDS011;944;51.574;6.980;2022-07-22T16:55:26;6.50;;;3.03;;
1887;SDS011;944;51.574;6.980;2022-07-22T16:57:53;5.20;;;2.77;;
1887;SDS011;944;51.574;6.980;2022-07-22T17:04:02;9.03;;;3.40;;
1887;SDS011;944;51.574;6.980;2022-07-22T17:10:15;5.50;;;2.60;;
1887;SDS011;944;51.574;6.980;2022-07-22T17:12:44;6.27;;;3.20;;
1887;SDS011;944;51.574;6.980;2022-07-22T17:15:13;7.93;;;3.33;;
1887;SDS011;944;51.574;6.980;2022-07-22T17:17:45;7.13;;;2.87;;
1887;SDS011;944;51.574;6.980;2022-07-22T17:20:13;8.43;;;2.70;;
1887;SDS011;944;51.574;6.980;2022-07-22T17:22:40;6.83;;;2.90;;
1887;SDS011;944;51.574;6.980;2022-07-22T17:25:09;3.80;;;2.63;;
1887;SDS011;944;51.574;6.980;2022-07-22T17:27:41;5.97;;;2.83;;
1887;SDS011;944;51.574;6.980;2022-07-22T17:30:09;8.30;;;2.97;;
1887;SDS011;944;51.574;6.980;2022-07-22T17:32:37;4.40;;;2.37;;
1887;SDS011;944;51.574;6.980;2022-07-22T17:35:08;4.83;;;2.90;;
1887;SDS011;944;51.574;6.980;2022-07-22T17:37:37;5.23;;;3.00;;
1887;SDS011;944;51.574;6.980;2022-07-22T17:40:04;6.47;;;2.83;;
1887;SDS011;944;51.574;6.980;2022-07-22T17:42:32;6.17;;;2.97;;
1887;SDS011;944;51.574;6.980;2022-07-22T17:45:01;4.07;;;2.77;;
1887;SDS011;944;51.574;6.980;2022-07-22T17:47:31;9.70;;;3.30;;
1887;SDS011;944;51.574;6.980;2022-07-22T17:49:58;5.27;;;2.90;;
1887;SDS011;944;51.574;6.980;2022-07-22T17:52:29;4.90;;;2.67;;
1887;SDS011;944;51.574;6.980;2022-07-22T17:54:59;3.53;;;2.23;;
1887;SDS011;944;51.574;6.980;2022-07-22T17:57:27;9.63;;;3.37;;
1887;SDS011;944;51.574;6.980;2022-07-22T17:59:54;7.40;;;3.00;;
1887;SDS011;944;51.574;6.980;2022-07-22T18:02:22;3.70;;;2.63;;
1887;SDS011;944;51.574;6.980;2022-07-22T18:04:51;5.53;;;3.00;;
1887;SDS011;944;51.574;6.980;2022-07-22T18:07:25;6.47;;;2.77;;
1887;SDS011;944;51.574;6.980;2022-07-22T18:09:53;8.67;;;2.97;;
1887;SDS011;944;51.574;6.980;2022-07-22T18:12:20;7.90;;;3.67;;
1887;SDS011;944;51.574;6.980;2022-07-22T18:14:47;8.97;;;3.07;;
1887;SDS011;944;51.574;6.980;2022-07-22T18:17:24;7.03;;;2.83;;
1887;SDS011;944;51.574;6.980;2022-07-22T18:23:05;6.57;;;3.10;;
1887;SDS011;944;51.574;6.980;2022-07-22T18:25:58;5.87;;;2.83;;
1887;SDS011;944;51.574;6.980;2022-07-22T18:28:26;8.63;;;3.03;;
1887;SDS011;944;51.574;6.980;2022-07-22T18:30:56;10.93;;;3.10;;
1887;SDS011;944;51.574;6.980;2022-07-22T18:51:38;6.60;;;2.87;;
1887;SDS011;944;51.574;6.980;2022-07-22T18:54:06;9.60;;;3.00;;
1887;SDS011;944;51.574;6.980;2022-07-22T18:56:35;3.90;;;2.63;;
1887;SDS011;944;51.574;6.980;2022-07-22T19:19:07;6.90;;;2.93;;
1887;SDS011;944;51.574;6.980;2022-07-22T19:21:34;3.73;;;2.63;;
1887;SDS011;944;51.574;6.980;2022-07-22T19:29:13;5.10;;;2.60;;
1887;SDS011;944;51.574;6.980;2022-07-22T19:31:40;2.90;;;2.60;;
1887;SDS011;944;51.574;6.980;2022-07-22T19:34:07;4.93;;;3.10;;
1887;SDS011;944;51.574;6.980;2022-07-22T19:36:35;12.33;;;2.70;;
1887;SDS011;944;51.574;6.980;2022-07-22T19:51:53;4.83;;;3.10;;
1887;SDS011;944;51.574;6.980;2022-07-22T19:56:57;4.23;;;3.00;;
1887;SDS011;944;51.574;6.980;2022-07-22T20:03:06;6.40;;;3.07;;
1887;SDS011;944;51.574;6.980;2022-07-22T20:05:33;7.93;;;3.50;;
1887;SDS011;944;51.574;6.980;2022-07-22T20:08:01;6.63;;;3.20;;
1887;SDS011;944;51.574;6.980;2022-07-22T20:10:29;8.43;;;3.40;;
1887;SDS011;944;51.574;6.980;2022-07-22T20:12:56;8.70;;;3.20;;
1887;SDS011;944;51.574;6.980;2022-07-22T20:15:23;5.10;;;3.60;;
1887;SDS011;944;51.574;6.980;2022-07-22T20:20:55;8.90;;;3.57;;
1887;SDS011;944;51.574;6.980;2022-07-22T20:23:24;6.50;;;3.53;;
1887;SDS011;944;51.574;6.980;2022-07-22T20:25:51;9.90;;;3.23;;
1887;SDS011;944;51.574;6.980;2022-07-22T20:28:18;6.47;;;3.43;;
1887;SDS011;944;51.574;6.980;2022-07-22T20:30:45;7.30;;;3.17;;
1887;SDS011;944;51.574;6.980;2022-07-22T20:33:12;12.23;;;3.57;;
1887;SDS011;944;51.574;6.980;2022-07-22T20:35:40;5.70;;;3.27;;
1887;SDS011;944;51.574;6.980;2022-07-22T20:38:08;6.30;;;3.57;;
1887;SDS011;944;51.574;6.980;2022-07-22T20:40:36;10.70;;;3.47;;
1887;SDS011;944;51.574;6.980;2022-07-22T20:43:03;6.10;;;3.20;;
1887;SDS011;944;51.574;6.980;2022-07-22T20:45:33;7.40;;;3.33;;
1887;SDS011;944;51.574;6.980;2022-07-22T20:48:02;3.33;;;3.00;;
1887;SDS011;944;51.574;6.980;2022-07-22T20:50:30;3.50;;;2.80;;
1887;SDS011;944;51.574;6.980;2022-07-22T20:53:00;8.10;;;3.57;;
1887;SDS011;944;51.574;6.980;2022-07-22T20:55:29;10.90;;;3.90;;
1887;SDS011;944;51.574;6.980;2022-07-22T20:58:08;11.70;;;4.17;;
1887;SDS011;944;51.574;6.980;2022-07-22T21:00:35;6.97;;;4.00;;
1887;SDS011;944;51.574;6.980;2022-07-22T21:03:02;7.57;;;3.47;;
1887;SDS011;944;51.574;6.980;2022-07-22T21:05:29;5.17;;;3.43;;
1887;SDS011;944;51.574;6.980;2022-07-22T21:07:56;5.90;;;3.10;;
1887;SDS011;944;51.574;6.980;2022-07-22T21:10:23;7.90;;;4.20;;
1887;SDS011;944;51.574;6.980;2022-07-22T21:12:50;3.03;;;2.70;;
1887;SDS011;944;51.574;6.980;2022-07-22T21:15:19;6.40;;;3.40;;
1887;SDS011;944;51.574;6.980;2022-07-22T21:17:46;8.17;;;3.03;;
1887;SDS011;944;51.574;6.980;2022-07-22T21:20:19;8.37;;;2.90;;
1887;SDS011;944;51.574;6.980;2022-07-22T21:22:47;6.37;;;3.07;;
1887;SDS011;944;51.574;6.980;2022-07-22T21:25:14;6.23;;;3.13;;
1887;SDS011;944;51.574;6.980;2022-07-22T21:27:41;6.93;;;3.20;;
1887;SDS011;944;51.574;6.980;2022-07-22T21:30:09;6.13;;;3.00;;
1887;SDS011;944;51.574;6.980;2022-07-22T21:32:39;6.60;;;3.57;;
1887;SDS011;944;51.574;6.980;2022-07-22T21:35:06;7.53;;;3.83;;
1887;SDS011;944;51.574;6.980;2022-07-22T21:37:34;9.23;;;3.07;;
1887;SDS011;944;51.574;6.980;2022-07-22T21:40:03;7.83;;;3.40;;
1887;SDS011;944;51.574;6.980;2022-07-22T21:42:31;7.60;;;3.00;;
1887;SDS011;944;51.574;6.980;2022-07-22T21:45:01;7.67;;;2.63;;
1887;SDS011;944;51.574;6.980;2022-07-22T21:47:33;8.23;;;4.50;;
1887;SDS011;944;51.574;6.980;2022-07-22T21:50:02;5.47;;;3.13;;
1887;SDS011;944;51.574;6.980;2022-07-22T21:52:29;13.03;;;4.20;;
1887;SDS011;944;51.574;6.980;2022-07-22T21:54:56;9.30;;;3.40;;
1887;SDS011;944;51.574;6.980;2022-07-22T21:57:23;6.70;;;3.40;;
1887;SDS011;944;51.574;6.980;2022-07-22T21:59:51;5.40;;;3.33;;
1887;SDS011;944;51.574;6.980;2022-07-22T22:02:18;4.47;;;3.37;;
1887;SDS011;944;51.574;6.980;2022-07-22T22:04:45;8.33;;;3.30;;
1887;SDS011;944;51.574;6.980;2022-07-22T22:07:14;4.30;;;2.67;;
1887;SDS011;944;51.574;6.980;2022-07-22T22:09:41;4.40;;;3.17;;
1887;SDS011;944;51.574;6.980;2022-07-22T22:12:08;7.73;;;3.37;;
1887;SDS011;944;51.574;6.980;2022-07-22T22:14:36;8.50;;;3.47;;
1887;SDS011;944;51.574;6.980;2022-07-22T22:17:04;8.67;;;3.50;;
1887;SDS011;944;51.574;6.980;2022-07-22T22:19:35;6.60;;;3.40;;
1887;SDS011;944;51.574;6.980;2022-07-22T22:22:03;9.53;;;3.57;;
1887;SDS011;944;51.574;6.980;2022-07-22T22:24:39;4.93;;;3.63;;
1887;SDS011;944;51.574;6.980;2022-07-22T22:29:55;6.70;;;3.90;;
1887;SDS011;944;51.574;6.980;2022-07-22T22:32:22;6.37;;;3.97;;
1887;SDS011;944;51.574;6.980;2022-07-22T22:34:49;5.23;;;3.67;;
1887;SDS011;944;51.574;6.980;2022-07-22T22:37:17;4.20;;;3.40;;
1887;SDS011;944;51.574;6.980;2022-07-22T22:39:45;7.00;;;4.07;;
1887;SDS011;944;51.574;6.980;2022-07-22T22:42:12;6.77;;;3.90;;
1887;SDS011;944;51.574;6.980;2022-07-22T22:44:39;6.57;;;3.80;;
1887;SDS011;944;51.574;6.980;2022-07-22T22:47:06;10.97;;;3.70;;
1887;SDS011;944;51.574;6.980;2022-07-22T22:49:33;4.00;;;3.37;;
1887;SDS011;944;51.574;6.980;2022-07-22T22:52:00;7.23;;;3.70;;
1887;SDS011;944;51.574;6.980;2022-07-22T22:54:27;8.13;;;4.20;;
1887;SDS011;944;51.574;6.980;2022-07-22T22:56:55;6.67;;;4.00;;
1887;SDS011;944;51.574;6.980;2022-07-22T22:59:22;9.50;;;4.57;;
1887;SDS011;944;51.574;6.980;2022-07-22T23:01:49;8.67;;;5.07;;
1887;SDS011;944;51.574;6.980;2022-07-22T23:04:16;7.70;;;4.73;;
1887;SDS011;944;51.574;6.980;2022-07-22T23:06:44;8.77;;;5.30;;
1887;SDS011;944;51.574;6.980;2022-07-22T23:09:11;8.60;;;5.73;;
1887;SDS011;944;51.574;6.980;2022-07-22T23:11:39;12.23;;;6.00;;
1887;SDS011;944;51.574;6.980;2022-07-22T23:14:17;10.03;;;6.90;;
1887;SDS011;944;51.574;6.980;2022-07-22T23:16:51;12.53;;;6.73;;
1887;SDS011;944;51.574;6.980;2022-07-22T23:33:24;13.70;;;9.30;;
1887;SDS011;944;51.574;6.980;2022-07-22T23:48:51;17.93;;;10.73;;
1887;SDS011;944;51.574;6.980;2022-07-22T23:51:26;12.83;;;9.57;;
1887;SDS011;944;51.574;6.980;2022-07-22T23:54:13;17.60;;;9.17;;
1887;SDS011;944;51.574;6.980;2022-07-22T23:56:55;16.17;;;9.10;;
1887;SDS011;944;51.574;6.980;2022-07-22T23:59:32;17.03;;;9.33;;
